createdAt,value
2022-09-25T00:00:24.334Z,0.00
2022-09-25T00:01:24.382Z,0.00
2022-09-25T00:02:24.343Z,0.00
2022-09-25T00:03:24.304Z,0.00
2022-09-25T00:04:24.288Z,0.00
2022-09-25T00:05:24.264Z,0.00
2022-09-25T00:06:24.279Z,0.00
2022-09-25T00:07:24.251Z,0.00
2022-09-25T00:08:24.238Z,0.00
2022-09-25T00:09:24.223Z,0.00
2022-09-25T00:10:24.219Z,0.00
2022-09-25T00:11:24.204Z,0.00
2022-09-25T00:12:24.229Z,0.00
2022-09-25T00:13:24.174Z,0.00
2022-09-25T00:14:24.191Z,0.00
2022-09-25T00:15:24.152Z,0.00
2022-09-25T00:16:24.203Z,0.00
2022-09-25T00:17:24.129Z,0.00
2022-09-25T00:18:24.136Z,0.00
2022-09-25T00:19:24.115Z,0.00
2022-09-25T00:20:24.134Z,0.00
2022-09-25T00:21:24.084Z,0.00
2022-09-25T00:22:24.071Z,0.00
2022-09-25T00:23:24.070Z,0.00
2022-09-25T00:24:24.068Z,0.00
2022-09-25T00:25:24.046Z,0.00
2022-09-25T00:26:24.038Z,0.00
2022-09-25T00:27:24.027Z,0.00
2022-09-25T00:28:24.025Z,0.00
2022-09-25T00:29:24.021Z,0.00
2022-09-25T00:30:23.983Z,0.00
2022-09-25T00:31:24.030Z,0.00
2022-09-25T00:32:23.970Z,0.00
2022-09-25T00:33:23.952Z,0.00
2022-09-25T00:34:23.948Z,0.00
2022-09-25T00:35:23.932Z,0.00
2022-09-25T00:36:23.922Z,0.00
2022-09-25T00:37:23.908Z,0.00
2022-09-25T00:38:23.889Z,0.00
2022-09-25T00:39:23.886Z,0.00
2022-09-25T00:40:23.944Z,0.00
2022-09-25T00:41:23.856Z,0.00
2022-09-25T00:42:23.865Z,0.00
2022-09-25T00:43:23.831Z,0.00
2022-09-25T00:44:23.852Z,0.00
2022-09-25T00:45:23.809Z,0.00
2022-09-25T00:46:23.938Z,0.00
2022-09-25T00:47:23.785Z,0.00
2022-09-25T00:48:23.796Z,0.00
2022-09-25T00:49:23.788Z,0.00
2022-09-25T00:50:23.752Z,0.00
2022-09-25T00:51:23.770Z,0.00
2022-09-25T00:52:23.737Z,0.00
2022-09-25T00:53:23.732Z,0.00
2022-09-25T00:54:23.722Z,0.00
2022-09-25T00:55:23.718Z,0.00
2022-09-25T00:56:23.694Z,0.00
2022-09-25T00:57:23.671Z,0.00
2022-09-25T00:58:23.668Z,0.00
2022-09-25T00:59:23.672Z,0.00
2022-09-25T01:00:23.671Z,0.00
2022-09-25T01:01:23.726Z,0.00
2022-09-25T01:02:23.717Z,0.00
2022-09-25T01:03:23.614Z,0.00
2022-09-25T01:04:23.598Z,0.00
2022-09-25T01:05:23.594Z,0.00
2022-09-25T01:06:23.580Z,0.00
2022-09-25T01:07:23.563Z,0.00
2022-09-25T01:08:23.547Z,0.00
2022-09-25T01:09:23.556Z,0.00
2022-09-25T01:10:23.546Z,0.00
2022-09-25T01:11:23.521Z,0.00
2022-09-25T01:12:23.502Z,0.00
2022-09-25T01:13:23.502Z,0.00
2022-09-25T01:14:23.476Z,0.00
2022-09-25T01:15:23.465Z,0.00
2022-09-25T01:16:23.567Z,0.00
2022-09-25T01:17:23.448Z,0.00
2022-09-25T01:18:23.440Z,0.00
2022-09-25T01:19:23.426Z,0.00
2022-09-25T01:20:23.423Z,0.00
2022-09-25T01:21:23.421Z,0.00
2022-09-25T01:22:23.391Z,0.00
2022-09-25T01:23:23.377Z,0.00
2022-09-25T01:24:23.381Z,0.00
2022-09-25T01:25:23.376Z,0.00
2022-09-25T01:26:23.355Z,0.00
2022-09-25T01:27:23.339Z,0.00
2022-09-25T01:28:23.317Z,0.00
2022-09-25T01:29:23.314Z,0.00
2022-09-25T01:30:23.295Z,0.00
2022-09-25T01:31:23.396Z,0.00
2022-09-25T01:32:23.324Z,0.00
2022-09-25T01:33:23.270Z,0.00
2022-09-25T01:34:23.255Z,0.00
2022-09-25T01:35:23.240Z,0.00
2022-09-25T01:36:23.225Z,0.00
2022-09-25T01:37:23.226Z,0.00
2022-09-25T01:38:23.217Z,0.00
2022-09-25T01:39:23.221Z,0.00
2022-09-25T01:40:23.319Z,0.00
2022-09-25T01:41:23.197Z,0.00
2022-09-25T01:42:23.166Z,0.00
2022-09-25T01:43:23.157Z,0.00
2022-09-25T01:44:23.142Z,0.00
2022-09-25T01:45:23.164Z,0.00
2022-09-25T01:46:23.169Z,0.00
2022-09-25T01:47:23.109Z,0.00
2022-09-25T01:48:23.113Z,0.00
2022-09-25T01:49:23.091Z,0.00
2022-09-25T01:50:23.067Z,0.00
2022-09-25T01:51:23.057Z,0.00
2022-09-25T01:52:23.045Z,0.00
2022-09-25T01:53:23.037Z,0.00
2022-09-25T01:54:23.027Z,0.00
2022-09-25T01:55:23.039Z,0.00
2022-09-25T01:56:23.001Z,0.00
2022-09-25T01:57:23.022Z,0.00
2022-09-25T01:58:22.978Z,0.00
2022-09-25T01:59:22.977Z,0.00
2022-09-25T02:00:22.959Z,0.00
2022-09-25T02:01:23.058Z,0.00
2022-09-25T02:02:23.074Z,0.00
2022-09-25T02:03:22.927Z,0.00
2022-09-25T02:04:22.930Z,0.00
2022-09-25T02:05:22.906Z,0.00
2022-09-25T02:06:22.897Z,0.00
2022-09-25T02:07:22.885Z,0.00
2022-09-25T02:08:22.868Z,0.00
2022-09-25T02:09:22.857Z,0.00
2022-09-25T02:10:22.845Z,0.00
2022-09-25T02:11:22.845Z,0.00
2022-09-25T02:12:22.823Z,0.00
2022-09-25T02:13:22.820Z,0.00
2022-09-25T02:14:22.800Z,0.00
2022-09-25T02:15:22.779Z,0.00
2022-09-25T02:16:22.822Z,0.00
2022-09-25T02:17:22.773Z,0.00
2022-09-25T02:18:22.754Z,0.00
2022-09-25T02:19:22.737Z,0.00
2022-09-25T02:20:22.752Z,0.00
2022-09-25T02:21:22.720Z,0.00
2022-09-25T02:22:22.734Z,0.00
2022-09-25T02:23:22.690Z,0.00
2022-09-25T02:24:22.681Z,0.00
2022-09-25T02:25:22.668Z,0.00
2022-09-25T02:26:22.673Z,0.00
2022-09-25T02:27:22.659Z,0.00
2022-09-25T02:28:22.642Z,0.00
2022-09-25T02:29:22.619Z,0.00
2022-09-25T02:30:22.687Z,0.00
2022-09-25T02:31:22.605Z,0.00
2022-09-25T02:32:22.594Z,0.00
2022-09-25T02:33:22.581Z,0.00
2022-09-25T02:34:22.571Z,0.00
2022-09-25T02:35:22.564Z,0.00
2022-09-25T02:36:22.572Z,0.00
2022-09-25T02:37:22.558Z,0.00
2022-09-25T02:38:22.522Z,0.00
2022-09-25T02:39:22.534Z,0.00
2022-09-25T02:40:22.606Z,0.00
2022-09-25T02:41:22.503Z,0.00
2022-09-25T02:42:22.500Z,0.00
2022-09-25T02:43:22.476Z,0.00
2022-09-25T02:44:22.451Z,0.00
2022-09-25T02:45:22.475Z,0.00
2022-09-25T02:46:22.493Z,0.00
2022-09-25T02:47:22.435Z,0.00
2022-09-25T02:48:22.421Z,0.00
2022-09-25T02:49:22.401Z,0.00
2022-09-25T02:50:22.393Z,0.00
2022-09-25T02:51:22.387Z,0.00
2022-09-25T02:52:22.389Z,0.00
2022-09-25T02:53:22.351Z,0.00
2022-09-25T02:54:22.345Z,0.00
2022-09-25T02:55:22.343Z,0.00
2022-09-25T02:56:22.311Z,0.00
2022-09-25T02:57:22.316Z,0.00
2022-09-25T02:58:22.289Z,0.00
2022-09-25T02:59:22.291Z,0.00
2022-09-25T03:00:22.285Z,0.00
2022-09-25T03:01:22.404Z,0.00
2022-09-25T03:02:22.310Z,0.00
2022-09-25T03:03:22.245Z,0.00
2022-09-25T03:04:22.225Z,0.00
2022-09-25T03:05:22.214Z,0.00
2022-09-25T03:06:22.221Z,0.00
2022-09-25T03:07:22.187Z,0.00
2022-09-25T03:08:22.201Z,0.00
2022-09-25T03:09:22.168Z,0.00
2022-09-25T03:10:22.164Z,0.00
2022-09-25T03:11:22.144Z,0.00
2022-09-25T03:12:22.147Z,0.00
2022-09-25T03:13:22.127Z,0.00
2022-09-25T03:14:22.118Z,0.00
2022-09-25T03:15:22.109Z,0.00
2022-09-25T03:16:22.188Z,0.00
2022-09-25T03:17:22.096Z,0.00
2022-09-25T03:18:22.068Z,0.00
2022-09-25T03:19:22.122Z,0.00
2022-09-25T03:20:22.040Z,0.00
2022-09-25T03:21:22.026Z,0.00
2022-09-25T03:22:22.021Z,0.00
2022-09-25T03:23:22.005Z,0.00
2022-09-25T03:24:22.018Z,0.00
2022-09-25T03:25:22.000Z,0.00
2022-09-25T03:26:21.978Z,0.00
2022-09-25T03:27:21.959Z,0.00
2022-09-25T03:28:21.947Z,0.00
2022-09-25T03:29:21.945Z,0.00
2022-09-25T03:30:21.936Z,0.00
2022-09-25T03:31:22.012Z,0.00
2022-09-25T03:32:21.909Z,0.00
2022-09-25T03:33:21.896Z,0.00
2022-09-25T03:34:21.886Z,0.00
2022-09-25T03:35:21.879Z,0.00
2022-09-25T03:36:21.874Z,0.00
2022-09-25T03:37:21.857Z,0.00
2022-09-25T03:38:21.834Z,0.00
2022-09-25T03:39:21.833Z,0.00
2022-09-25T03:40:21.987Z,0.00
2022-09-25T03:41:21.810Z,0.00
2022-09-25T03:42:21.806Z,0.00
2022-09-25T03:43:21.776Z,0.00
2022-09-25T03:44:21.770Z,0.00
2022-09-25T03:45:21.853Z,0.00
2022-09-25T03:46:21.877Z,0.00
2022-09-25T03:47:21.749Z,0.00
2022-09-25T03:48:21.717Z,0.00
2022-09-25T03:49:21.724Z,0.00
2022-09-25T03:50:21.696Z,0.00
2022-09-25T03:51:21.683Z,0.00
2022-09-25T03:52:21.678Z,0.00
2022-09-25T03:53:21.659Z,0.00
2022-09-25T03:54:21.664Z,0.00
2022-09-25T03:55:21.637Z,0.00
2022-09-25T03:56:21.662Z,0.00
2022-09-25T03:57:21.615Z,0.00
2022-09-25T03:58:21.624Z,0.00
2022-09-25T03:59:21.599Z,0.00
2022-09-25T04:00:21.588Z,0.00
2022-09-25T04:01:21.608Z,0.00
2022-09-25T04:02:21.668Z,0.00
2022-09-25T04:03:21.569Z,0.00
2022-09-25T04:04:21.551Z,0.00
2022-09-25T04:05:21.542Z,0.00
2022-09-25T04:06:21.546Z,0.00
2022-09-25T04:07:21.512Z,0.00
2022-09-25T04:08:21.507Z,0.00
2022-09-25T04:09:21.556Z,0.00
2022-09-25T04:10:21.480Z,0.00
2022-09-25T04:11:21.453Z,0.00
2022-09-25T04:12:21.495Z,0.00
2022-09-25T04:13:21.469Z,0.00
2022-09-25T04:14:21.455Z,0.00
2022-09-25T04:15:21.415Z,0.00
2022-09-25T04:16:21.667Z,0.00
2022-09-25T04:17:21.385Z,0.00
2022-09-25T04:18:21.384Z,0.00
2022-09-25T04:19:21.403Z,0.00
2022-09-25T04:20:21.353Z,0.00
2022-09-25T04:21:21.356Z,0.00
2022-09-25T04:22:21.337Z,0.00
2022-09-25T04:23:21.328Z,0.00
2022-09-25T04:24:21.304Z,0.00
2022-09-25T04:25:24.402Z,0.00
2022-09-25T04:26:21.300Z,0.00
2022-09-25T04:27:21.285Z,0.00
2022-09-25T04:28:21.284Z,0.00
2022-09-25T04:29:21.262Z,0.00
2022-09-25T04:30:21.242Z,0.00
2022-09-25T04:31:21.311Z,0.00
2022-09-25T04:32:21.233Z,0.00
2022-09-25T04:33:21.206Z,0.00
2022-09-25T04:34:21.193Z,0.00
2022-09-25T04:35:21.251Z,0.00
2022-09-25T04:36:21.182Z,0.00
2022-09-25T04:37:21.170Z,0.00
2022-09-25T04:38:21.148Z,0.00
2022-09-25T04:39:21.142Z,0.00
2022-09-25T04:40:21.197Z,0.00
2022-09-25T04:41:21.114Z,0.00
2022-09-25T04:42:21.103Z,0.00
2022-09-25T04:43:21.107Z,0.00
2022-09-25T04:44:21.190Z,0.00
2022-09-25T04:45:21.066Z,0.00
2022-09-25T04:46:22.701Z,0.00
2022-09-25T04:47:21.070Z,0.00
2022-09-25T04:48:21.033Z,0.00
2022-09-25T04:49:21.023Z,0.00
2022-09-25T04:50:21.044Z,0.00
2022-09-25T04:51:21.003Z,0.00
2022-09-25T04:52:20.995Z,0.00
2022-09-25T04:53:20.996Z,0.00
2022-09-25T04:54:20.975Z,0.00
2022-09-25T04:55:20.974Z,0.00
2022-09-25T04:56:20.955Z,0.00
2022-09-25T04:57:39.129Z,0.00
2022-09-25T04:58:21.942Z,0.00
2022-09-25T04:59:20.913Z,0.00
2022-09-25T05:00:20.919Z,0.00
2022-09-25T05:01:21.045Z,0.00
2022-09-25T05:02:20.968Z,0.00
2022-09-25T05:03:21.148Z,0.00
2022-09-25T05:04:20.858Z,0.00
2022-09-25T05:05:20.851Z,0.00
2022-09-25T05:06:20.842Z,0.00
2022-09-25T05:07:20.824Z,0.00
2022-09-25T05:08:20.813Z,0.00
2022-09-25T05:09:20.812Z,0.00
2022-09-25T05:10:20.804Z,0.00
2022-09-25T05:11:20.801Z,0.00
2022-09-25T05:12:20.764Z,0.00
2022-09-25T05:13:20.763Z,0.00
2022-09-25T05:14:20.737Z,0.00
2022-09-25T05:15:20.762Z,0.00
2022-09-25T05:16:20.865Z,0.00
2022-09-25T05:17:20.699Z,0.00
2022-09-25T05:18:20.700Z,0.00
2022-09-25T05:19:20.679Z,0.00
2022-09-25T05:20:20.674Z,0.00
2022-09-25T05:21:20.661Z,0.00
2022-09-25T05:22:20.672Z,0.00
2022-09-25T05:23:20.646Z,0.00
2022-09-25T05:24:20.633Z,0.00
2022-09-25T05:25:20.622Z,0.00
2022-09-25T05:26:20.603Z,0.00
2022-09-25T05:27:20.599Z,0.00
2022-09-25T05:28:20.593Z,0.00
2022-09-25T05:29:20.573Z,0.00
2022-09-25T05:30:20.559Z,0.00
2022-09-25T05:31:20.592Z,0.00
2022-09-25T05:32:20.559Z,0.00
2022-09-25T05:33:20.529Z,0.00
2022-09-25T05:34:20.516Z,0.00
2022-09-25T05:35:20.495Z,0.00
2022-09-25T05:36:20.485Z,0.00
2022-09-25T05:37:20.494Z,0.00
2022-09-25T05:38:20.473Z,0.00
2022-09-25T05:39:20.475Z,0.00
2022-09-25T05:40:20.497Z,0.00
2022-09-25T05:41:20.428Z,0.00
2022-09-25T05:42:20.423Z,0.00
2022-09-25T05:43:20.402Z,0.00
2022-09-25T05:44:20.396Z,0.00
2022-09-25T05:45:20.403Z,0.00
2022-09-25T05:46:20.483Z,0.00
2022-09-25T05:47:20.381Z,0.00
2022-09-25T05:48:20.369Z,0.00
2022-09-25T05:49:20.358Z,0.00
2022-09-25T05:50:20.337Z,0.00
2022-09-25T05:51:20.318Z,5.62
2022-09-25T05:52:20.313Z,5.62
2022-09-25T05:53:20.291Z,5.62
2022-09-25T05:54:20.298Z,5.62
2022-09-25T05:55:20.281Z,5.62
2022-09-25T05:56:20.253Z,5.62
2022-09-25T05:57:20.243Z,5.62
2022-09-25T05:58:20.233Z,5.62
2022-09-25T05:59:20.224Z,5.62
2022-09-25T06:00:20.234Z,5.62
2022-09-25T06:01:20.205Z,5.62
2022-09-25T06:02:20.251Z,5.62
2022-09-25T06:03:20.223Z,5.62
2022-09-25T06:04:20.187Z,5.62
2022-09-25T06:05:20.178Z,5.62
2022-09-25T06:06:23.828Z,11.25
2022-09-25T06:07:21.135Z,11.25
2022-09-25T06:08:20.130Z,11.25
2022-09-25T06:09:20.119Z,11.25
2022-09-25T06:10:20.098Z,11.25
2022-09-25T06:11:20.089Z,11.25
2022-09-25T06:12:20.080Z,11.25
2022-09-25T06:13:20.065Z,11.25
2022-09-25T06:14:20.071Z,11.25
2022-09-25T06:15:20.036Z,11.25
2022-09-25T06:16:20.112Z,11.25
2022-09-25T06:17:20.012Z,11.25
2022-09-25T06:18:20.011Z,11.25
2022-09-25T06:19:19.996Z,11.25
2022-09-25T06:20:20.015Z,11.25
2022-09-25T06:21:19.971Z,11.25
2022-09-25T06:22:20.022Z,11.25
2022-09-25T06:23:19.952Z,11.25
2022-09-25T06:24:19.932Z,11.25
2022-09-25T06:25:19.935Z,11.25
2022-09-25T06:26:19.915Z,11.25
2022-09-25T06:27:19.909Z,11.25
2022-09-25T06:28:19.904Z,16.88
2022-09-25T06:29:19.879Z,16.88
2022-09-25T06:30:19.875Z,16.88
2022-09-25T06:31:19.931Z,22.50
2022-09-25T06:32:19.840Z,22.50
2022-09-25T06:33:19.847Z,22.50
2022-09-25T06:34:19.828Z,22.50
2022-09-25T06:35:19.842Z,22.50
2022-09-25T06:36:19.827Z,22.50
2022-09-25T06:37:19.806Z,22.50
2022-09-25T06:38:19.782Z,28.12
2022-09-25T06:39:19.777Z,28.12
2022-09-25T06:40:19.817Z,28.12
2022-09-25T06:41:19.776Z,33.75
2022-09-25T06:42:19.729Z,33.75
2022-09-25T06:43:19.727Z,33.75
2022-09-25T06:44:19.721Z,39.38
2022-09-25T06:45:19.702Z,39.38
2022-09-25T06:46:19.756Z,33.75
2022-09-25T06:47:23.504Z,33.75
2022-09-25T06:48:20.670Z,39.38
2022-09-25T06:49:19.647Z,39.38
2022-09-25T06:50:19.684Z,39.38
2022-09-25T06:51:19.622Z,45.00
2022-09-25T06:52:19.637Z,50.62
2022-09-25T06:53:19.607Z,50.62
2022-09-25T06:54:19.617Z,50.62
2022-09-25T06:55:19.592Z,45.00
2022-09-25T06:56:19.594Z,45.00
2022-09-25T06:57:19.564Z,45.00
2022-09-25T06:58:19.590Z,39.38
2022-09-25T06:59:19.539Z,39.38
2022-09-25T07:00:19.544Z,45.00
2022-09-25T07:01:19.570Z,45.00
2022-09-25T07:02:19.702Z,45.00
2022-09-25T07:03:19.494Z,50.62
2022-09-25T07:04:19.475Z,56.25
2022-09-25T07:05:19.462Z,56.25
2022-09-25T07:06:19.463Z,61.88
2022-09-25T07:07:19.441Z,61.88
2022-09-25T07:08:19.453Z,61.88
2022-09-25T07:09:19.441Z,61.88
2022-09-25T07:10:19.409Z,61.88
2022-09-25T07:11:19.401Z,61.88
2022-09-25T07:12:19.400Z,61.88
2022-09-25T07:13:19.373Z,61.88
2022-09-25T07:14:19.372Z,67.50
2022-09-25T07:15:19.361Z,61.88
2022-09-25T07:16:19.410Z,61.88
2022-09-25T07:17:19.329Z,61.88
2022-09-25T07:18:19.314Z,56.25
2022-09-25T07:19:19.311Z,56.25
2022-09-25T07:20:19.295Z,56.25
2022-09-25T07:21:19.350Z,56.25
2022-09-25T07:22:19.288Z,61.88
2022-09-25T07:23:19.265Z,61.88
2022-09-25T07:24:19.268Z,61.88
2022-09-25T07:25:19.251Z,61.88
2022-09-25T07:26:19.233Z,67.50
2022-09-25T07:27:19.222Z,67.50
2022-09-25T07:28:19.210Z,67.50
2022-09-25T07:29:19.200Z,73.12
2022-09-25T07:30:19.178Z,73.12
2022-09-25T07:31:19.361Z,73.12
2022-09-25T07:32:19.161Z,73.12
2022-09-25T07:33:19.145Z,78.75
2022-09-25T07:34:19.149Z,84.38
2022-09-25T07:35:19.131Z,90.00
2022-09-25T07:36:19.114Z,90.00
2022-09-25T07:37:19.109Z,95.62
2022-09-25T07:38:19.086Z,95.62
2022-09-25T07:39:19.085Z,101.25
2022-09-25T07:40:19.172Z,101.25
2022-09-25T07:41:19.058Z,106.88
2022-09-25T07:42:19.060Z,106.88
2022-09-25T07:43:19.037Z,112.50
2022-09-25T07:44:38.267Z,112.50
2022-09-25T07:45:20.010Z,112.50
2022-09-25T07:46:19.075Z,106.88
2022-09-25T07:47:18.991Z,106.88
2022-09-25T07:48:18.974Z,106.88
2022-09-25T07:49:18.967Z,106.88
2022-09-25T07:50:18.949Z,112.50
2022-09-25T07:51:18.951Z,118.12
2022-09-25T07:52:18.945Z,123.75
2022-09-25T07:53:18.919Z,129.38
2022-09-25T07:54:18.910Z,129.38
2022-09-25T07:55:18.902Z,129.38
2022-09-25T07:56:18.915Z,129.38
2022-09-25T07:57:18.877Z,129.38
2022-09-25T07:58:18.868Z,129.38
2022-09-25T07:59:18.861Z,140.62
2022-09-25T08:00:18.837Z,146.25
2022-09-25T08:01:18.917Z,146.25
2022-09-25T08:02:18.985Z,146.25
2022-09-25T08:03:18.824Z,151.88
2022-09-25T08:04:18.802Z,151.88
2022-09-25T08:05:18.787Z,157.50
2022-09-25T08:06:18.768Z,157.50
2022-09-25T08:07:18.784Z,157.50
2022-09-25T08:08:18.755Z,157.50
2022-09-25T08:09:18.739Z,157.50
2022-09-25T08:10:18.743Z,157.50
2022-09-25T08:11:18.714Z,163.12
2022-09-25T08:12:18.830Z,163.12
2022-09-25T08:13:18.702Z,163.12
2022-09-25T08:14:21.227Z,168.75
2022-09-25T08:15:19.664Z,174.38
2022-09-25T08:16:18.804Z,180.00
2022-09-25T08:17:18.650Z,180.00
2022-09-25T08:18:18.647Z,180.00
2022-09-25T08:19:18.626Z,185.62
2022-09-25T08:20:18.622Z,185.62
2022-09-25T08:21:18.611Z,185.62
2022-09-25T08:22:18.592Z,185.62
2022-09-25T08:23:18.594Z,185.62
2022-09-25T08:24:18.580Z,191.25
2022-09-25T08:25:18.563Z,191.25
2022-09-25T08:26:18.538Z,191.25
2022-09-25T08:27:18.529Z,191.25
2022-09-25T08:28:18.552Z,191.25
2022-09-25T08:29:18.542Z,191.25
2022-09-25T08:30:18.509Z,191.25
2022-09-25T08:31:18.600Z,191.25
2022-09-25T08:32:18.476Z,191.25
2022-09-25T08:33:18.466Z,191.25
2022-09-25T08:34:40.215Z,191.25
2022-09-25T08:35:19.442Z,191.25
2022-09-25T08:36:18.425Z,191.25
2022-09-25T08:37:18.422Z,191.25
2022-09-25T08:38:18.403Z,191.25
2022-09-25T08:39:18.393Z,191.25
2022-09-25T08:40:18.445Z,185.62
2022-09-25T08:41:18.386Z,191.25
2022-09-25T08:42:18.357Z,185.62
2022-09-25T08:43:18.373Z,185.62
2022-09-25T08:44:18.364Z,180.00
2022-09-25T08:45:21.501Z,180.00
2022-09-25T08:46:18.402Z,185.62
2022-09-25T08:47:19.693Z,180.00
2022-09-25T08:48:18.305Z,174.38
2022-09-25T08:49:18.314Z,180.00
2022-09-25T08:50:18.280Z,180.00
2022-09-25T08:51:18.259Z,180.00
2022-09-25T08:52:18.252Z,180.00
2022-09-25T08:53:18.246Z,174.38
2022-09-25T08:54:18.229Z,168.75
2022-09-25T08:55:18.227Z,163.12
2022-09-25T08:56:18.204Z,168.75
2022-09-25T08:57:18.196Z,174.38
2022-09-25T08:58:18.185Z,180.00
2022-09-25T08:59:18.182Z,180.00
2022-09-25T09:00:18.227Z,180.00
2022-09-25T09:01:18.221Z,180.00
2022-09-25T09:02:18.219Z,180.00
2022-09-25T09:03:18.137Z,180.00
2022-09-25T09:04:18.122Z,180.00
2022-09-25T09:05:18.103Z,174.38
2022-09-25T09:06:18.099Z,174.38
2022-09-25T09:07:27.358Z,174.38
2022-09-25T09:08:19.076Z,168.75
2022-09-25T09:09:18.053Z,151.88
2022-09-25T09:10:18.114Z,140.62
2022-09-25T09:11:18.048Z,135.00
2022-09-25T09:12:18.042Z,146.25
2022-09-25T09:13:18.020Z,151.88
2022-09-25T09:14:18.017Z,157.50
2022-09-25T09:15:18.009Z,157.50
2022-09-25T09:16:18.160Z,168.75
2022-09-25T09:17:17.980Z,191.25
2022-09-25T09:18:17.970Z,202.50
2022-09-25T09:19:17.944Z,208.12
2022-09-25T09:20:18.052Z,208.12
2022-09-25T09:21:17.930Z,213.75
2022-09-25T09:22:17.959Z,219.38
2022-09-25T09:23:17.914Z,219.38
2022-09-25T09:24:17.892Z,219.38
2022-09-25T09:25:17.890Z,225.00
2022-09-25T09:26:17.869Z,225.00
2022-09-25T09:27:17.894Z,225.00
2022-09-25T09:28:17.845Z,230.62
2022-09-25T09:29:17.827Z,230.62
2022-09-25T09:30:17.944Z,236.25
2022-09-25T09:31:17.915Z,230.62
2022-09-25T09:32:17.910Z,236.25
2022-09-25T09:33:17.806Z,236.25
2022-09-25T09:34:17.780Z,236.25
2022-09-25T09:35:17.792Z,241.88
2022-09-25T09:36:17.769Z,241.88
2022-09-25T09:37:17.740Z,247.50
2022-09-25T09:38:17.728Z,253.12
2022-09-25T09:39:17.734Z,258.75
2022-09-25T09:40:17.850Z,258.75
2022-09-25T09:41:17.692Z,258.75
2022-09-25T09:42:17.688Z,264.38
2022-09-25T09:43:17.684Z,264.38
2022-09-25T09:44:17.659Z,270.00
2022-09-25T09:45:17.650Z,270.00
2022-09-25T09:46:17.698Z,275.62
2022-09-25T09:47:17.651Z,275.62
2022-09-25T09:48:17.646Z,275.62
2022-09-25T09:49:17.620Z,275.62
2022-09-25T09:50:17.608Z,275.62
2022-09-25T09:51:17.595Z,275.62
2022-09-25T09:52:17.638Z,275.62
2022-09-25T09:53:17.568Z,281.25
2022-09-25T09:54:17.553Z,281.25
2022-09-25T09:55:17.553Z,281.25
2022-09-25T09:56:17.522Z,281.25
2022-09-25T09:57:17.516Z,281.25
2022-09-25T09:58:17.500Z,275.62
2022-09-25T09:59:17.500Z,275.62
2022-09-25T10:00:17.506Z,281.25
2022-09-25T10:01:37.011Z,281.25
2022-09-25T10:02:18.695Z,281.25
2022-09-25T10:03:17.546Z,286.88
2022-09-25T10:04:17.545Z,286.88
2022-09-25T10:05:17.433Z,286.88
2022-09-25T10:06:22.406Z,286.88
2022-09-25T10:07:18.417Z,281.25
2022-09-25T10:08:17.406Z,275.62
2022-09-25T10:09:17.397Z,270.00
2022-09-25T10:10:17.368Z,270.00
2022-09-25T10:11:17.356Z,264.38
2022-09-25T10:12:17.344Z,253.12
2022-09-25T10:13:17.341Z,247.50
2022-09-25T10:14:17.336Z,253.12
2022-09-25T10:15:17.315Z,264.38
2022-09-25T10:16:17.378Z,270.00
2022-09-25T10:17:17.288Z,275.62
2022-09-25T10:18:17.290Z,281.25
2022-09-25T10:19:17.264Z,286.88
2022-09-25T10:20:17.276Z,270.00
2022-09-25T10:21:17.251Z,264.38
2022-09-25T10:22:17.441Z,253.12
2022-09-25T10:23:17.241Z,253.12
2022-09-25T10:24:17.228Z,253.12
2022-09-25T10:25:17.210Z,247.50
2022-09-25T10:26:17.195Z,241.88
2022-09-25T10:27:17.191Z,241.88
2022-09-25T10:28:17.173Z,241.88
2022-09-25T10:29:17.152Z,241.88
2022-09-25T10:30:17.163Z,247.50
2022-09-25T10:31:17.171Z,253.12
2022-09-25T10:32:17.127Z,247.50
2022-09-25T10:33:17.111Z,241.88
2022-09-25T10:34:17.097Z,241.88
2022-09-25T10:35:17.090Z,247.50
2022-09-25T10:36:17.198Z,253.12
2022-09-25T10:37:17.083Z,253.12
2022-09-25T10:38:17.057Z,253.12
2022-09-25T10:39:42.365Z,253.12
2022-09-25T10:40:18.083Z,258.75
2022-09-25T10:41:17.018Z,270.00
2022-09-25T10:42:17.032Z,275.62
2022-09-25T10:43:17.004Z,286.88
2022-09-25T10:44:17.004Z,298.12
2022-09-25T10:45:16.996Z,292.50
2022-09-25T10:46:17.052Z,298.12
2022-09-25T10:47:16.956Z,298.12
2022-09-25T10:48:16.958Z,303.75
2022-09-25T10:49:16.936Z,303.75
2022-09-25T10:50:16.924Z,309.38
2022-09-25T10:51:16.930Z,320.62
2022-09-25T10:52:16.917Z,320.62
2022-09-25T10:53:16.889Z,326.25
2022-09-25T10:54:16.871Z,331.88
2022-09-25T10:55:16.989Z,337.50
2022-09-25T10:56:16.855Z,343.12
2022-09-25T10:57:16.869Z,354.38
2022-09-25T10:58:16.841Z,354.38
2022-09-25T10:59:16.983Z,348.75
2022-09-25T11:00:16.811Z,348.75
2022-09-25T11:01:16.848Z,348.75
2022-09-25T11:02:16.917Z,331.88
2022-09-25T11:03:17.478Z,326.25
2022-09-25T11:04:16.757Z,320.62
2022-09-25T11:05:16.754Z,315.00
2022-09-25T11:06:16.749Z,315.00
2022-09-25T11:07:16.737Z,309.38
2022-09-25T11:08:16.734Z,309.38
2022-09-25T11:09:16.703Z,298.12
2022-09-25T11:10:16.703Z,292.50
2022-09-25T11:11:16.685Z,286.88
2022-09-25T11:12:16.704Z,281.25
2022-09-25T11:13:16.677Z,270.00
2022-09-25T11:14:16.644Z,264.38
2022-09-25T11:15:16.632Z,264.38
2022-09-25T11:16:16.735Z,258.75
2022-09-25T11:17:16.632Z,258.75
2022-09-25T11:18:16.608Z,253.12
2022-09-25T11:19:16.794Z,247.50
2022-09-25T11:20:16.800Z,247.50
2022-09-25T11:21:16.573Z,247.50
2022-09-25T11:22:16.558Z,247.50
2022-09-25T11:23:16.559Z,247.50
2022-09-25T11:24:16.675Z,241.88
2022-09-25T11:25:16.550Z,241.88
2022-09-25T11:26:16.524Z,241.88
2022-09-25T11:27:16.499Z,241.88
2022-09-25T11:28:16.492Z,241.88
2022-09-25T11:29:16.588Z,247.50
2022-09-25T11:30:16.479Z,247.50
2022-09-25T11:31:16.505Z,247.50
2022-09-25T11:32:16.456Z,247.50
2022-09-25T11:33:16.432Z,247.50
2022-09-25T11:34:16.419Z,253.12
2022-09-25T11:35:16.418Z,264.38
2022-09-25T11:36:16.412Z,258.75
2022-09-25T11:37:16.392Z,247.50
2022-09-25T11:38:16.401Z,253.12
2022-09-25T11:39:16.403Z,253.12
2022-09-25T11:40:16.559Z,264.38
2022-09-25T11:41:16.358Z,270.00
2022-09-25T11:42:16.351Z,275.62
2022-09-25T11:43:16.331Z,286.88
2022-09-25T11:44:16.314Z,315.00
2022-09-25T11:45:16.320Z,309.38
2022-09-25T11:46:16.324Z,303.75
2022-09-25T11:47:16.273Z,315.00
2022-09-25T11:48:16.268Z,326.25
2022-09-25T11:49:16.630Z,343.12
2022-09-25T11:50:16.257Z,343.12
2022-09-25T11:51:16.235Z,337.50
2022-09-25T11:52:16.224Z,376.88
2022-09-25T11:53:16.205Z,376.88
2022-09-25T11:54:32.430Z,354.38
2022-09-25T11:55:17.186Z,320.62
2022-09-25T11:56:16.283Z,281.25
2022-09-25T11:57:16.174Z,275.62
2022-09-25T11:58:16.161Z,270.00
2022-09-25T11:59:16.138Z,281.25
2022-09-25T12:00:16.138Z,331.88
2022-09-25T12:01:16.188Z,303.75
2022-09-25T12:02:16.165Z,303.75
2022-09-25T12:03:16.098Z,303.75
2022-09-25T12:04:16.093Z,309.38
2022-09-25T12:05:16.076Z,303.75
2022-09-25T12:06:16.073Z,309.38
2022-09-25T12:07:16.048Z,303.75
2022-09-25T12:08:16.049Z,292.50
2022-09-25T12:09:16.057Z,286.88
2022-09-25T12:10:16.024Z,275.62
2022-09-25T12:11:16.010Z,270.00
2022-09-25T12:12:16.023Z,264.38
2022-09-25T12:13:16.024Z,264.38
2022-09-25T12:14:15.976Z,258.75
2022-09-25T12:15:16.012Z,258.75
2022-09-25T12:16:15.968Z,253.12
2022-09-25T12:17:15.956Z,247.50
2022-09-25T12:18:15.938Z,247.50
2022-09-25T12:19:15.914Z,247.50
2022-09-25T12:20:15.925Z,241.88
2022-09-25T12:21:15.896Z,241.88
2022-09-25T12:22:15.885Z,241.88
2022-09-25T12:23:15.879Z,241.88
2022-09-25T12:24:15.858Z,241.88
2022-09-25T12:25:15.859Z,247.50
2022-09-25T12:26:15.836Z,247.50
2022-09-25T12:27:15.839Z,247.50
2022-09-25T12:28:15.835Z,247.50
2022-09-25T12:29:15.808Z,247.50
2022-09-25T12:30:15.815Z,253.12
2022-09-25T12:31:15.855Z,281.25
2022-09-25T12:32:15.770Z,264.38
2022-09-25T12:33:15.755Z,253.12
2022-09-25T12:34:15.743Z,253.12
2022-09-25T12:35:15.732Z,258.75
2022-09-25T12:36:15.739Z,264.38
2022-09-25T12:37:15.734Z,270.00
2022-09-25T12:38:15.706Z,270.00
2022-09-25T12:39:15.705Z,275.62
2022-09-25T12:40:15.743Z,281.25
2022-09-25T12:41:15.674Z,286.88
2022-09-25T12:42:15.667Z,292.50
2022-09-25T12:43:15.655Z,286.88
2022-09-25T12:44:15.652Z,298.12
2022-09-25T12:45:15.628Z,382.50
2022-09-25T12:46:15.685Z,320.62
2022-09-25T12:47:15.599Z,281.25
2022-09-25T12:48:15.601Z,264.38
2022-09-25T12:49:15.592Z,247.50
2022-09-25T12:50:15.572Z,241.88
2022-09-25T12:51:15.578Z,253.12
2022-09-25T12:52:15.543Z,247.50
2022-09-25T12:53:15.548Z,247.50
2022-09-25T12:54:15.546Z,253.12